Time;durP1;ratioP1;P1;durP2;ratioP2;P2;SDS_P1;SDS_P2;PMS_P1;PMS_P2;Temp;Humidity;BMP_temperature;BMP_pressure;BME280_temperature;BME280_humidity;BME280_pressure;Samples;Min_cycle;Max_cycle;Signal;HPM_P1;HPM_P2
2022/04/08 00:01:58;0.00;0.00;0.62;0.00;0.00;0.62;2.63;0.97;;;21.70;23.50;;;;;;2249732;61;20508;-65
2022/04/08 00:04:44;0.00;0.00;0.62;0.00;0.00;0.62;1.77;0.90;;;21.60;23.40;;;;;;2250000;61;20946;-65
2022/04/08 00:07:30;0.00;0.00;0.62;0.00;0.00;0.62;2.10;1.20;;;21.60;23.50;;;;;;2250561;61;20369;-64
2022/04/08 00:10:14;0.00;0.00;0.62;0.00;0.00;0.62;1.87;0.83;;;21.50;23.40;;;;;;2249666;61;20431;-66
2022/04/08 00:12:59;0.00;0.00;0.62;0.00;0.00;0.62;1.60;1.00;;;21.50;23.50;;;;;;2250507;61;20372;-64
2022/04/08 00:15:44;0.00;0.00;0.62;0.00;0.00;0.62;2.10;0.90;;;21.40;23.50;;;;;;2249722;61;20363;-65
2022/04/08 00:18:29;0.00;0.00;0.62;0.00;0.00;0.62;1.30;0.60;;;21.40;23.50;;;;;;2249333;61;20387;-65
2022/04/08 00:21:14;0.00;0.00;0.62;0.00;0.00;0.62;3.00;0.90;;;21.40;23.50;;;;;;2250151;61;20866;-65
2022/04/08 00:24:00;0.00;0.00;0.62;0.00;0.00;0.62;1.60;1.00;;;21.30;23.50;;;;;;2248982;61;20915;-65
2022/04/08 00:26:46;0.00;0.00;0.62;0.00;0.00;0.62;2.73;0.90;;;21.20;23.40;;;;;;2250292;61;20372;-66
2022/04/08 00:29:30;0.00;0.00;0.62;0.00;0.00;0.62;1.70;0.93;;;21.20;23.50;;;;;;2246698;61;20363;-64
2022/04/08 00:32:16;0.00;0.00;0.62;0.00;0.00;0.62;1.60;0.80;;;21.20;23.60;;;;;;2249408;61;20367;-66
2022/04/08 00:35:01;0.00;0.00;0.62;0.00;0.00;0.62;2.07;0.80;;;21.10;23.60;;;;;;2250160;61;20418;-65
2022/04/08 00:37:45;0.00;0.00;0.62;0.00;0.00;0.62;1.93;0.90;;;21.10;23.60;;;;;;2250130;61;20368;-66
2022/04/08 00:40:33;0.00;0.00;0.62;0.00;0.00;0.62;2.10;0.70;;;21.00;23.60;;;;;;2250112;61;20921;-65
2022/04/08 00:43:19;0.00;0.00;0.62;0.00;0.00;0.62;3.80;1.03;;;21.00;23.60;;;;;;2250441;61;20407;-67
2022/04/08 00:46:06;0.00;0.00;0.62;0.00;0.00;0.62;2.23;0.97;;;20.90;23.60;;;;;;2249269;61;20391;-66
2022/04/08 00:48:51;0.00;0.00;0.62;0.00;0.00;0.62;2.90;0.97;;;20.90;23.70;;;;;;2249938;61;20888;-66
2022/04/08 00:51:36;0.00;0.00;0.62;0.00;0.00;0.62;1.63;0.93;;;20.80;24.10;;;;;;2250041;61;20391;-65
2022/04/08 00:54:21;0.00;0.00;0.62;0.00;0.00;0.62;2.10;0.90;;;20.80;23.60;;;;;;2249920;61;20363;-64
2022/04/08 00:57:07;0.00;0.00;0.62;0.00;0.00;0.62;1.90;0.80;;;20.80;23.70;;;;;;2250286;61;20450;-66
2022/04/08 00:59:52;0.00;0.00;0.62;0.00;0.00;0.62;2.70;0.77;;;20.70;23.70;;;;;;2250284;61;20427;-66
2022/04/08 01:02:37;0.00;0.00;0.62;0.00;0.00;0.62;1.93;0.80;;;20.70;23.90;;;;;;2250067;61;20907;-65
2022/04/08 01:05:21;0.00;0.00;0.62;0.00;0.00;0.62;1.70;1.00;;;20.70;24.00;;;;;;2249964;61;20831;-66
2022/04/08 01:08:10;0.00;0.00;0.62;0.00;0.00;0.62;4.73;1.53;;;20.60;24.00;;;;;;2249765;61;20395;-65
2022/04/08 01:10:56;0.00;0.00;0.62;0.00;0.00;0.62;1.50;0.70;;;20.60;24.10;;;;;;2249754;61;20444;-66
2022/04/08 01:13:42;0.00;0.00;0.62;0.00;0.00;0.62;2.47;1.10;;;20.50;24.10;;;;;;2250023;61;20401;-65
2022/04/08 01:16:27;0.00;0.00;0.62;0.00;0.00;0.62;2.40;1.00;;;20.50;24.20;;;;;;2250025;61;20395;-65
2022/04/08 01:19:11;0.00;0.00;0.62;0.00;0.00;0.62;2.20;0.90;;;20.50;24.30;;;;;;2249880;61;20576;-65
2022/04/08 01:21:56;0.00;0.00;0.62;0.00;0.00;0.62;2.10;1.10;;;20.50;24.40;;;;;;2250862;61;20368;-66
2022/04/08 01:24:46;0.00;0.00;0.62;0.00;0.00;0.62;2.60;1.03;;;20.40;24.30;;;;;;2250101;61;20382;-67
2022/04/08 01:27:32;0.00;0.00;0.62;0.00;0.00;0.62;2.43;1.00;;;20.40;24.40;;;;;;2250689;61;20517;-65
2022/04/08 01:30:17;0.00;0.00;0.62;0.00;0.00;0.62;1.87;1.07;;;20.30;24.40;;;;;;2249780;61;20411;-65
2022/04/08 01:33:01;0.00;0.00;0.62;0.00;0.00;0.62;2.83;0.93;;;20.30;24.40;;;;;;2250321;61;20403;-65
2022/04/08 01:35:46;0.00;0.00;0.62;0.00;0.00;0.62;4.60;1.00;;;20.30;24.40;;;;;;2250346;61;20355;-65
2022/04/08 01:38:31;0.00;0.00;0.62;0.00;0.00;0.62;2.03;1.03;;;20.30;24.50;;;;;;2249621;61;20422;-64
2022/04/08 01:41:18;0.00;0.00;0.62;0.00;0.00;0.62;2.50;1.00;;;20.30;24.50;;;;;;2249784;61;20501;-65
2022/04/08 01:44:05;0.00;0.00;0.62;0.00;0.00;0.62;2.47;1.30;;;20.30;24.50;;;;;;2250344;61;20410;-65
2022/04/08 01:46:49;0.00;0.00;0.62;0.00;0.00;0.62;1.80;0.90;;;20.30;24.50;;;;;;2250249;61;20984;-66
2022/04/08 01:49:34;0.00;0.00;0.62;0.00;0.00;0.62;1.77;1.27;;;20.20;24.40;;;;;;2250622;61;20428;-65
2022/04/08 01:52:18;0.00;0.00;0.62;0.00;0.00;0.62;1.70;1.10;;;20.20;24.40;;;;;;2250609;61;20391;-65
2022/04/08 01:55:05;0.00;0.00;0.62;0.00;0.00;0.62;1.80;1.20;;;20.20;24.50;;;;;;2250928;61;20359;-66
2022/04/08 01:57:51;0.00;0.00;0.62;0.00;0.00;0.62;1.87;1.00;;;20.20;24.50;;;;;;2250636;61;20407;-66
2022/04/08 02:00:37;0.00;0.00;0.62;0.00;0.00;0.62;1.40;0.80;;;20.20;24.50;;;;;;2250860;61;20387;-66
2022/04/08 02:03:22;0.00;0.00;0.62;0.00;0.00;0.62;1.67;0.70;;;20.20;24.50;;;;;;2250313;61;20415;-65
2022/04/08 02:06:06;0.00;0.00;0.62;0.00;0.00;0.62;2.50;1.00;;;20.20;24.50;;;;;;2250977;61;20414;-66
2022/04/08 02:08:53;0.00;0.00;0.62;0.00;0.00;0.62;2.57;0.90;;;20.20;24.50;;;;;;2250382;61;20364;-65
2022/04/08 02:11:38;0.00;0.00;0.62;0.00;0.00;0.62;2.67;1.27;;;20.20;24.50;;;;;;2250938;61;20447;-66
2022/04/08 02:14:23;0.00;0.00;0.62;0.00;0.00;0.62;3.10;0.80;;;20.20;24.50;;;;;;2250548;61;20375;-67
2022/04/08 02:17:09;0.00;0.00;0.62;0.00;0.00;0.62;2.53;0.80;;;20.20;24.50;;;;;;2251032;61;20403;-67
2022/04/08 02:19:53;0.00;0.00;0.62;0.00;0.00;0.62;2.40;0.90;;;20.20;24.50;;;;;;2250495;61;20383;-66
2022/04/08 02:22:38;0.00;0.00;0.62;0.00;0.00;0.62;1.90;1.03;;;20.20;24.40;;;;;;2249898;61;20388;-66
2022/04/08 02:25:23;0.00;0.00;0.62;0.00;0.00;0.62;1.97;0.90;;;20.30;24.40;;;;;;2249960;61;20387;-65
2022/04/08 02:28:08;0.00;0.00;0.62;0.00;0.00;0.62;2.20;0.80;;;20.20;24.40;;;;;;2250505;61;20367;-65
2022/04/08 02:30:55;0.00;0.00;0.62;0.00;0.00;0.62;2.10;0.90;;;20.20;24.30;;;;;;2249978;61;20407;-66
2022/04/08 02:33:41;0.00;0.00;0.62;0.00;0.00;0.62;1.40;0.70;;;20.20;24.30;;;;;;2250374;61;20960;-67
2022/04/08 02:36:26;0.00;0.00;0.62;0.00;0.00;0.62;2.17;0.70;;;20.20;24.30;;;;;;2250363;61;20360;-70
2022/04/08 02:39:11;0.00;0.00;0.62;0.00;0.00;0.62;1.30;0.70;;;20.20;24.30;;;;;;2250372;61;20861;-66
2022/04/08 02:41:57;0.00;0.00;0.62;0.00;0.00;0.62;2.70;1.07;;;20.20;24.30;;;;;;2250735;61;20359;-66
2022/04/08 02:44:41;0.00;0.00;0.62;0.00;0.00;0.62;1.83;0.80;;;20.20;24.30;;;;;;2250364;61;20395;-66
2022/04/08 02:47:26;0.00;0.00;0.62;0.00;0.00;0.62;3.83;0.90;;;20.20;24.30;;;;;;2250144;61;20415;-66
2022/04/08 02:50:15;0.00;0.00;0.62;0.00;0.00;0.62;3.17;1.00;;;20.20;24.30;;;;;;2250342;61;20387;-67
2022/04/08 02:52:59;0.00;0.00;0.62;0.00;0.00;0.62;3.17;1.47;;;20.20;24.30;;;;;;2250062;61;20387;-65
2022/04/08 02:55:44;0.00;0.00;0.62;0.00;0.00;0.62;1.97;1.00;;;20.20;24.30;;;;;;2250775;61;20780;-65
2022/04/08 02:58:29;0.00;0.00;0.62;0.00;0.00;0.62;1.70;0.73;;;20.20;24.30;;;;;;2249409;61;20364;-64
2022/04/08 03:01:13;0.00;0.00;0.62;0.00;0.00;0.62;2.70;1.37;;;20.20;24.30;;;;;;2250240;61;20380;-65
2022/04/08 03:03:57;0.00;0.00;0.62;0.00;0.00;0.62;2.30;0.87;;;20.20;24.30;;;;;;2250578;61;20363;-66
2022/04/08 03:06:43;0.00;0.00;0.62;0.00;0.00;0.62;1.70;0.83;;;20.20;24.30;;;;;;2250244;61;20476;-67
2022/04/08 03:09:28;0.00;0.00;0.62;0.00;0.00;0.62;2.40;1.00;;;20.20;24.30;;;;;;2250304;61;20391;-67
2022/04/08 03:12:13;0.00;0.00;0.62;0.00;0.00;0.62;2.13;0.80;;;20.20;24.30;;;;;;2250899;61;20931;-66
2022/04/08 03:14:59;0.00;0.00;0.62;0.00;0.00;0.62;2.60;1.13;;;20.20;24.30;;;;;;2249758;61;20515;-66
2022/04/08 03:17:45;0.00;0.00;0.62;0.00;0.00;0.62;2.70;0.90;;;20.20;24.30;;;;;;2250732;61;20418;-69
2022/04/08 03:20:30;0.00;0.00;0.62;0.00;0.00;0.62;2.43;0.80;;;20.20;24.80;;;;;;2250546;61;20443;-69
2022/04/08 03:23:16;0.00;0.00;0.62;0.00;0.00;0.62;3.87;1.00;;;20.20;24.30;;;;;;2250014;61;20375;-66
2022/04/08 03:26:00;0.00;0.00;0.62;0.00;0.00;0.62;3.40;1.03;;;20.10;24.20;;;;;;2250727;61;20435;-65
2022/04/08 03:28:46;0.00;0.00;0.62;0.00;0.00;0.62;2.63;1.10;;;20.20;24.30;;;;;;2249877;61;20378;-66
2022/04/08 03:31:30;0.00;0.00;0.62;0.00;0.00;0.62;2.50;0.97;;;20.10;24.20;;;;;;2249784;61;20394;-66
2022/04/08 03:34:15;0.00;0.00;0.62;0.00;0.00;0.62;2.40;0.80;;;20.20;24.30;;;;;;2250528;61;20368;-66
2022/04/08 03:37:00;0.00;0.00;0.62;0.00;0.00;0.62;2.10;1.00;;;20.10;24.20;;;;;;2250412;61;20463;-67
2022/04/08 03:39:47;0.00;0.00;0.62;0.00;0.00;0.62;2.70;1.03;;;20.10;24.20;;;;;;2250348;61;20383;-66
2022/04/08 03:42:33;0.00;0.00;0.62;0.00;0.00;0.62;1.90;0.97;;;20.10;24.20;;;;;;2250867;61;20371;-65
2022/04/08 03:45:18;0.00;0.00;0.62;0.00;0.00;0.62;2.17;1.20;;;20.10;24.20;;;;;;2250557;61;20391;-65
2022/04/08 03:48:03;0.00;0.00;0.62;0.00;0.00;0.62;1.83;0.90;;;20.10;24.20;;;;;;2250237;61;20367;-66
2022/04/08 03:50:48;0.00;0.00;0.62;0.00;0.00;0.62;3.20;0.97;;;20.10;24.20;;;;;;2250241;61;20391;-66
2022/04/08 03:53:32;0.00;0.00;0.62;0.00;0.00;0.62;2.63;0.83;;;20.10;24.20;;;;;;2250680;61;20432;-65
2022/04/08 03:56:18;0.00;0.00;0.62;0.00;0.00;0.62;2.00;1.10;;;20.10;24.20;;;;;;2250800;61;20431;-65
2022/04/08 03:59:04;0.00;0.00;0.62;0.00;0.00;0.62;2.17;1.00;;;20.10;24.20;;;;;;2249205;61;20395;-65
2022/04/08 04:01:49;0.00;0.00;0.62;0.00;0.00;0.62;2.00;0.93;;;20.00;24.10;;;;;;2250604;61;20359;-65
2022/04/08 04:04:34;0.00;0.00;0.62;0.00;0.00;0.62;1.67;0.90;;;20.00;24.00;;;;;;2251282;61;20383;-65
2022/04/08 04:07:19;0.00;0.00;0.62;0.00;0.00;0.62;1.50;0.90;;;20.00;24.10;;;;;;2250577;61;20411;-65
2022/04/08 04:10:05;0.00;0.00;0.62;0.00;0.00;0.62;1.80;0.80;;;20.00;24.10;;;;;;2251019;61;20396;-65
2022/04/08 04:12:52;0.00;0.00;0.62;0.00;0.00;0.62;1.80;0.80;;;19.90;24.10;;;;;;2250480;61;20472;-65
2022/04/08 04:15:36;0.00;0.00;0.62;0.00;0.00;0.62;1.37;0.80;;;19.90;24.20;;;;;;2250734;61;20927;-64
2022/04/08 04:18:20;0.00;0.00;0.62;0.00;0.00;0.62;1.70;0.67;;;19.90;24.20;;;;;;2250588;61;20824;-66
2022/04/08 04:21:05;0.00;0.00;0.62;0.00;0.00;0.62;1.67;0.70;;;19.90;24.30;;;;;;2250578;61;20387;-66
2022/04/08 04:23:51;0.00;0.00;0.62;0.00;0.00;0.62;2.90;1.00;;;19.90;24.20;;;;;;2250783;61;20407;-65
2022/04/08 04:26:35;0.00;0.00;0.62;0.00;0.00;0.62;2.67;0.90;;;19.80;24.20;;;;;;2250589;61;20360;-65
2022/04/08 04:29:21;0.00;0.00;0.62;0.00;0.00;0.62;1.80;0.60;;;19.80;24.20;;;;;;2250050;61;20368;-68
2022/04/08 04:32:07;0.00;0.00;0.62;0.00;0.00;0.62;1.60;0.70;;;19.80;24.20;;;;;;2250822;61;20364;-66
2022/04/08 04:34:51;0.00;0.00;0.62;0.00;0.00;0.62;2.10;0.90;;;19.80;24.20;;;;;;2250001;61;20367;-64
2022/04/08 04:37:37;0.00;0.00;0.62;0.00;0.00;0.62;2.80;0.80;;;19.70;24.20;;;;;;2250296;61;20367;-64
2022/04/08 04:40:21;0.00;0.00;0.62;0.00;0.00;0.62;2.13;0.80;;;19.80;24.30;;;;;;2247570;61;20412;-64
2022/04/08 04:43:06;0.00;0.00;0.62;0.00;0.00;0.62;1.80;0.70;;;19.80;24.30;;;;;;2250510;61;20923;-65
2022/04/08 04:45:51;0.00;0.00;0.62;0.00;0.00;0.62;2.30;1.37;;;19.80;24.30;;;;;;2250710;61;20392;-65
2022/04/08 04:48:36;0.00;0.00;0.62;0.00;0.00;0.62;1.20;0.60;;;19.80;24.30;;;;;;2250149;61;20367;-59
2022/04/08 04:51:20;0.00;0.00;0.62;0.00;0.00;0.62;2.00;0.80;;;19.80;24.30;;;;;;2248810;61;20434;-65
2022/04/08 04:54:05;0.00;0.00;0.62;0.00;0.00;0.62;2.50;0.87;;;19.80;24.20;;;;;;2248827;61;20955;-65
2022/04/08 04:56:50;0.00;0.00;0.62;0.00;0.00;0.62;1.43;0.80;;;19.70;24.20;;;;;;2248711;61;20448;-66
2022/04/08 04:59:35;0.00;0.00;0.62;0.00;0.00;0.62;1.30;0.60;;;19.70;24.20;;;;;;2250561;61;20889;-65
2022/04/08 05:02:21;0.00;0.00;0.62;0.00;0.00;0.62;1.57;1.03;;;19.70;24.20;;;;;;2249560;61;20367;-57
2022/04/08 05:05:06;0.00;0.00;0.62;0.00;0.00;0.62;2.50;0.87;;;19.70;24.10;;;;;;2249533;61;20923;-62
2022/04/08 05:07:51;0.00;0.00;0.62;0.00;0.00;0.62;1.70;0.83;;;19.70;24.10;;;;;;2249464;61;20371;-65
2022/04/08 05:10:36;0.00;0.00;0.62;0.00;0.00;0.62;2.33;0.80;;;19.70;24.00;;;;;;2248150;61;20403;-60
2022/04/08 05:13:21;0.00;0.00;0.62;0.00;0.00;0.62;2.33;0.80;;;19.60;23.90;;;;;;2247550;61;20395;-55
2022/04/08 05:16:05;0.00;0.00;0.62;0.00;0.00;0.62;2.17;1.00;;;19.60;24.00;;;;;;2249619;61;20411;-65
2022/04/08 05:18:52;0.00;0.00;0.62;0.00;0.00;0.62;2.10;0.70;;;19.60;24.00;;;;;;2249883;61;20367;-62
2022/04/08 05:21:36;0.00;0.00;0.62;0.00;0.00;0.62;1.20;0.60;;;19.60;24.00;;;;;;2247453;61;20427;-62
2022/04/08 05:24:21;0.00;0.00;0.62;0.00;0.00;0.62;1.60;0.70;;;19.60;24.00;;;;;;2249724;61;20351;-61
2022/04/08 05:27:06;0.00;0.00;0.62;0.00;0.00;0.62;1.70;0.70;;;19.50;23.80;;;;;;2251029;61;20359;-63
2022/04/08 05:29:51;0.00;0.00;0.62;0.00;0.00;0.62;1.63;0.80;;;19.50;23.80;;;;;;2251270;61;20395;-65
2022/04/08 05:32:35;0.00;0.00;0.62;0.00;0.00;0.62;2.97;0.90;;;19.40;23.70;;;;;;2250852;61;21115;-64
2022/04/08 05:35:22;0.00;0.00;0.62;0.00;0.00;0.62;1.40;0.70;;;19.40;24.20;;;;;;2251241;61;20375;-64
2022/04/08 05:38:07;0.00;0.00;0.62;0.00;0.00;0.62;3.83;1.33;;;19.40;23.60;;;;;;2250992;61;20399;-64
2022/04/08 05:40:51;0.00;0.00;0.62;0.00;0.00;0.62;1.80;0.90;;;19.30;23.60;;;;;;2250946;61;20383;-64
2022/04/08 05:43:36;0.00;0.00;0.62;0.00;0.00;0.62;2.00;0.70;;;19.30;23.60;;;;;;2249938;61;20770;-63
2022/04/08 05:46:20;0.00;0.00;0.62;0.00;0.00;0.62;1.70;0.80;;;19.30;23.70;;;;;;2247433;61;20387;-59
2022/04/08 05:49:05;0.00;0.00;0.62;0.00;0.00;0.62;2.10;1.03;;;19.20;23.70;;;;;;2247108;61;20423;-63
2022/04/08 05:51:51;0.00;0.00;0.62;0.00;0.00;0.62;1.43;0.70;;;19.20;23.80;;;;;;2251009;61;20452;-61
2022/04/08 05:54:35;0.00;0.00;0.62;0.00;0.00;0.62;1.60;0.70;;;19.20;23.90;;;;;;2251004;61;20403;-59
2022/04/08 05:57:20;0.00;0.00;0.62;0.00;0.00;0.62;2.90;0.80;;;19.20;24.60;;;;;;2250350;61;20476;-56
2022/04/08 06:00:12;0.00;0.00;0.62;0.00;0.00;0.62;2.70;0.70;;;19.20;24.20;;;;;;2250767;61;20896;-54
2022/04/08 06:02:56;0.00;0.00;0.62;0.00;0.00;0.62;2.37;0.70;;;19.30;24.20;;;;;;2251131;61;20390;-58
2022/04/08 06:05:42;0.00;0.00;0.62;0.00;0.00;0.62;2.20;0.60;;;19.30;24.20;;;;;;2250353;61;20914;-58
2022/04/08 06:08:28;0.00;0.00;0.62;0.00;0.00;0.62;1.30;0.70;;;19.30;24.20;;;;;;2250473;61;20409;-58
2022/04/08 06:11:12;0.00;0.00;0.62;0.00;0.00;0.62;1.50;0.70;;;19.40;24.30;;;;;;2250528;61;20387;-59
2022/04/08 06:13:57;0.00;0.00;0.62;0.00;0.00;0.62;1.77;0.70;;;19.40;24.20;;;;;;2251036;61;20410;-60
2022/04/08 06:16:42;0.00;0.00;0.62;0.00;0.00;0.62;1.20;0.60;;;19.50;24.80;;;;;;2250514;61;20364;-59
2022/04/08 06:19:27;0.00;0.00;0.62;0.00;0.00;0.62;1.20;0.70;;;19.50;24.20;;;;;;2249856;61;20927;-61
2022/04/08 06:22:11;0.00;0.00;0.62;0.00;0.00;0.62;1.20;0.50;;;19.60;24.20;;;;;;2250833;61;20956;-62
2022/04/08 06:24:58;0.00;0.00;0.62;0.00;0.00;0.62;1.57;0.60;;;19.60;24.20;;;;;;2250870;61;20388;-60
2022/04/08 06:27:44;0.00;0.00;0.62;0.00;0.00;0.62;1.60;0.60;;;19.70;24.20;;;;;;2250335;61;20399;-59
2022/04/08 06:30:30;0.00;0.00;0.62;0.00;0.00;0.62;1.60;0.70;;;19.70;24.70;;;;;;2250494;61;20395;-62
2022/04/08 06:33:16;0.00;0.00;0.62;0.00;0.00;0.62;1.50;0.70;;;19.80;24.20;;;;;;2250548;61;20415;-60
2022/04/08 06:36:00;0.00;0.00;0.62;0.00;0.00;0.62;1.40;0.80;;;19.80;24.20;;;;;;2251243;61;20403;-59
2022/04/08 06:38:46;0.00;0.00;0.62;0.00;0.00;0.62;1.30;0.60;;;19.80;24.10;;;;;;2249923;61;20360;-60
2022/04/08 06:41:32;0.00;0.00;0.62;0.00;0.00;0.62;2.03;0.80;;;19.90;24.20;;;;;;2250167;61;20383;-56
2022/04/08 06:44:17;0.00;0.00;0.62;0.00;0.00;0.62;1.20;0.60;;;19.90;24.10;;;;;;2250828;61;20410;-60
2022/04/08 06:47:01;0.00;0.00;0.62;0.00;0.00;0.62;1.70;0.60;;;19.90;24.10;;;;;;2250163;61;20395;-59
2022/04/08 06:49:46;0.00;0.00;0.62;0.00;0.00;0.62;1.30;0.80;;;20.00;24.10;;;;;;2250266;61;20383;-60
2022/04/08 06:52:31;0.00;0.00;0.62;0.00;0.00;0.62;1.70;0.70;;;20.00;24.00;;;;;;2250846;61;20388;-62
2022/04/08 06:55:16;0.00;0.00;0.62;0.00;0.00;0.62;2.70;0.70;;;20.00;24.00;;;;;;2250277;61;20356;-61
2022/04/08 06:58:04;0.00;0.00;0.62;0.00;0.00;0.62;1.30;0.63;;;20.10;24.10;;;;;;2250486;61;20788;-61
2022/04/08 07:00:48;0.00;0.00;0.62;0.00;0.00;0.62;2.07;0.70;;;20.10;24.00;;;;;;2250406;61;20388;-58
2022/04/08 07:03:33;0.00;0.00;0.62;0.00;0.00;0.62;1.30;0.70;;;20.10;24.00;;;;;;2250112;61;20898;-58
2022/04/08 07:06:18;0.00;0.00;0.62;0.00;0.00;0.62;1.40;0.70;;;20.10;24.00;;;;;;2250491;61;20796;-65
2022/04/08 07:09:03;0.00;0.00;0.62;0.00;0.00;0.62;1.73;0.70;;;20.20;24.00;;;;;;2249772;61;20364;-61
2022/04/08 07:11:50;0.00;0.00;0.62;0.00;0.00;0.62;2.40;0.80;;;20.20;24.00;;;;;;2250125;61;20367;-56
2022/04/08 07:14:35;0.00;0.00;0.62;0.00;0.00;0.62;2.10;0.70;;;20.20;24.00;;;;;;2249810;61;20472;-60
2022/04/08 07:17:26;0.00;0.00;0.62;0.00;0.00;0.62;1.20;0.60;;;20.30;24.00;;;;;;2250361;61;20584;-62
2022/04/08 07:20:14;0.00;0.00;0.62;0.00;0.00;0.62;1.57;0.63;;;20.30;24.00;;;;;;2250686;61;20444;-62
2022/04/08 07:23:03;0.00;0.00;0.62;0.00;0.00;0.62;1.40;0.70;;;20.30;24.00;;;;;;2249881;61;20383;-58
2022/04/08 07:25:48;0.00;0.00;0.62;0.00;0.00;0.62;1.43;0.80;;;20.30;24.00;;;;;;2249780;61;20407;-58
2022/04/08 07:28:33;0.00;0.00;0.62;0.00;0.00;0.62;2.33;0.90;;;20.40;24.00;;;;;;2250501;61;20449;-58
2022/04/08 07:31:19;0.00;0.00;0.62;0.00;0.00;0.62;1.33;0.70;;;20.40;24.00;;;;;;2250402;61;20855;-64
2022/04/08 07:34:04;0.00;0.00;0.62;0.00;0.00;0.62;1.47;0.60;;;20.40;24.00;;;;;;2249917;61;20387;-60
2022/04/08 07:36:48;0.00;0.00;0.62;0.00;0.00;0.62;1.20;0.70;;;20.40;24.00;;;;;;2250233;61;20482;-62
2022/04/08 07:39:35;0.00;0.00;0.62;0.00;0.00;0.62;1.63;0.70;;;20.50;24.00;;;;;;2249855;61;20411;-63
2022/04/08 07:42:19;0.00;0.00;0.62;0.00;0.00;0.62;1.57;0.70;;;20.50;24.00;;;;;;2250158;61;20782;-58
2022/04/08 07:45:06;0.00;0.00;0.62;0.00;0.00;0.62;1.27;0.70;;;20.50;24.00;;;;;;2248991;61;20859;-62
2022/04/08 07:47:54;0.00;0.00;0.62;0.00;0.00;0.62;1.50;0.83;;;20.50;24.00;;;;;;2248378;61;20499;-62
2022/04/08 07:50:40;0.00;0.00;0.62;0.00;0.00;0.62;1.20;0.70;;;20.60;24.00;;;;;;2250341;61;20388;-61
2022/04/08 07:53:24;0.00;0.00;0.62;0.00;0.00;0.62;2.20;0.73;;;20.60;24.00;;;;;;2249725;61;20891;-60
2022/04/08 07:56:09;0.00;0.00;0.62;0.00;0.00;0.62;1.20;0.60;;;20.60;24.00;;;;;;2249817;61;20468;-60
2022/04/08 07:58:54;0.00;0.00;0.62;0.00;0.00;0.62;1.30;0.70;;;20.60;24.00;;;;;;2249512;61;20476;-58
2022/04/08 08:01:38;0.00;0.00;0.62;0.00;0.00;0.62;1.40;0.60;;;20.60;24.00;;;;;;2250324;61;20399;-61
2022/04/08 08:04:24;0.00;0.00;0.62;0.00;0.00;0.62;1.43;0.70;;;20.70;24.00;;;;;;2249821;61;20411;-60
2022/04/08 08:07:09;0.00;0.00;0.62;0.00;0.00;0.62;1.30;0.70;;;20.70;24.00;;;;;;2249869;61;20376;-62
2022/04/08 08:09:53;0.00;0.00;0.62;0.00;0.00;0.62;1.53;0.83;;;20.70;24.00;;;;;;2249450;61;20388;-61
2022/04/08 08:12:38;0.00;0.00;0.62;0.00;0.00;0.62;1.30;0.70;;;20.80;24.10;;;;;;2247260;61;20412;-60
2022/04/08 08:15:24;0.00;0.00;0.62;0.00;0.00;0.62;2.90;0.87;;;20.80;24.10;;;;;;2249598;61;20460;-62
2022/04/08 08:18:09;0.00;0.00;0.62;0.00;0.00;0.62;1.80;0.73;;;20.80;24.10;;;;;;2249566;61;20403;-63
2022/04/08 08:20:55;0.00;0.00;0.62;0.00;0.00;0.62;1.60;1.00;;;20.80;24.00;;;;;;2250413;61;20388;-65
2022/04/08 08:23:39;0.00;0.00;0.62;0.00;0.00;0.62;1.20;0.60;;;20.80;24.00;;;;;;2250248;61;20367;-59
2022/04/08 08:26:24;0.00;0.00;0.62;0.00;0.00;0.62;1.60;0.80;;;20.90;24.10;;;;;;2249947;61;20416;-62
2022/04/08 08:29:09;0.00;0.00;0.62;0.00;0.00;0.62;1.20;0.60;;;20.90;24.00;;;;;;2249341;61;20924;-64
2022/04/08 08:31:53;0.00;0.00;0.62;0.00;0.00;0.62;1.30;0.60;;;20.90;24.00;;;;;;2249257;61;20371;-60
2022/04/08 08:34:37;0.00;0.00;0.62;0.00;0.00;0.62;1.30;0.70;;;20.90;24.00;;;;;;2250151;61;20367;-60
2022/04/08 08:37:23;0.00;0.00;0.62;0.00;0.00;0.62;1.63;0.80;;;20.90;24.00;;;;;;2249957;61;20915;-61
2022/04/08 08:40:11;0.00;0.00;0.62;0.00;0.00;0.62;1.50;0.80;;;21.00;24.10;;;;;;2249274;61;20967;-60
2022/04/08 08:42:56;0.00;0.00;0.62;0.00;0.00;0.62;1.20;0.60;;;21.00;24.10;;;;;;2250098;61;20363;-61
2022/04/08 08:45:43;0.00;0.00;0.62;0.00;0.00;0.62;1.40;0.70;;;21.00;24.00;;;;;;2250132;61;20382;-59
2022/04/08 08:48:30;0.00;0.00;0.62;0.00;0.00;0.62;1.40;0.70;;;21.00;24.00;;;;;;2249078;61;20835;-63
2022/04/08 08:51:15;0.00;0.00;0.62;0.00;0.00;0.62;1.43;0.73;;;21.00;24.00;;;;;;2249767;61;20422;-61
2022/04/08 08:54:01;0.00;0.00;0.62;0.00;0.00;0.62;1.90;0.80;;;21.10;24.10;;;;;;2249809;61;20395;-64
2022/04/08 08:56:45;0.00;0.00;0.62;0.00;0.00;0.62;1.30;0.70;;;21.10;24.00;;;;;;2250280;61;20368;-63
2022/04/08 08:59:30;0.00;0.00;0.62;0.00;0.00;0.62;1.40;0.70;;;21.10;24.00;;;;;;2249312;61;20387;-62
2022/04/08 09:02:18;0.00;0.00;0.62;0.00;0.00;0.62;1.30;0.70;;;21.20;24.00;;;;;;2249808;61;20364;-65
2022/04/08 09:05:14;0.00;0.00;0.62;0.00;0.00;0.62;1.43;0.70;;;21.20;24.00;;;;;;2250142;61;20467;-60
2022/04/08 09:08:01;0.00;0.00;0.62;0.00;0.00;0.62;2.43;0.80;;;21.20;24.00;;;;;;2249858;61;20364;-63
2022/04/08 09:10:48;0.00;0.00;0.62;0.00;0.00;0.62;1.30;0.70;;;21.20;23.90;;;;;;2248539;61;20453;-60
2022/04/08 09:13:44;0.00;0.00;0.62;0.00;0.00;0.62;1.30;0.80;;;21.20;23.90;;;;;;2249615;61;20391;-59
2022/04/08 09:16:33;0.00;0.00;0.62;0.00;0.00;0.62;1.30;0.70;;;21.20;23.90;;;;;;2249747;61;20419;-61
2022/04/08 09:19:18;0.00;0.00;0.62;0.00;0.00;0.62;1.57;0.80;;;21.30;23.90;;;;;;2248994;61;20364;-62
2022/04/08 09:22:03;0.00;0.00;0.62;0.00;0.00;0.62;1.50;0.90;;;21.30;23.90;;;;;;2249639;61;20909;-60
2022/04/08 09:24:48;0.00;0.00;0.62;0.00;0.00;0.62;1.80;0.90;;;21.30;23.90;;;;;;2249536;61;20367;-58
2022/04/08 09:27:34;0.00;0.00;0.62;0.00;0.00;0.62;1.30;0.80;;;21.30;23.90;;;;;;2250273;61;20371;-60
2022/04/08 09:30:20;0.00;0.00;0.62;0.00;0.00;0.62;1.30;0.70;;;21.30;23.90;;;;;;2250552;61;20387;-62
2022/04/08 09:33:13;0.00;0.00;0.62;0.00;0.00;0.62;3.10;0.80;;;21.30;23.90;;;;;;2249285;61;20427;-63
2022/04/08 09:35:59;0.00;0.00;0.62;0.00;0.00;0.62;1.20;0.70;;;21.30;23.90;;;;;;2250038;61;20406;-61
2022/04/08 09:38:49;0.00;0.00;0.62;0.00;0.00;0.62;1.40;0.70;;;21.40;23.90;;;;;;2250212;61;21024;-60
2022/04/08 09:41:39;0.00;0.00;0.62;0.00;0.00;0.62;1.30;0.70;;;21.40;23.90;;;;;;2249912;61;20407;-58
2022/04/08 09:44:25;0.00;0.00;0.62;0.00;0.00;0.62;1.63;0.87;;;21.40;23.80;;;;;;2250121;61;20815;-61
2022/04/08 09:47:09;0.00;0.00;0.62;0.00;0.00;0.62;1.20;0.60;;;21.40;23.80;;;;;;2249808;61;20360;-60
2022/04/08 09:49:54;0.00;0.00;0.62;0.00;0.00;0.62;1.67;0.77;;;21.40;23.80;;;;;;2249898;61;20797;-63
2022/04/08 09:52:39;0.00;0.00;0.62;0.00;0.00;0.62;1.63;0.70;;;21.40;23.80;;;;;;2250525;61;20491;-60
2022/04/08 09:55:25;0.00;0.00;0.62;0.00;0.00;0.62;1.30;0.70;;;21.50;23.80;;;;;;2249849;61;20360;-60
2022/04/08 09:58:12;0.00;0.00;0.62;0.00;0.00;0.62;1.50;0.80;;;21.50;23.80;;;;;;2249569;61;20765;-63
2022/04/08 10:00:59;0.00;0.00;0.62;0.00;0.00;0.62;1.17;0.67;;;21.50;23.80;;;;;;2250081;61;20792;-58
2022/04/08 10:03:44;0.00;0.00;0.62;0.00;0.00;0.62;1.40;0.80;;;21.50;23.80;;;;;;2246814;61;20360;-59
2022/04/08 10:06:30;0.00;0.00;0.62;0.00;0.00;0.62;1.20;0.60;;;21.50;23.80;;;;;;2249959;61;20439;-59
2022/04/08 10:09:19;0.00;0.00;0.62;0.00;0.00;0.62;2.80;0.80;;;21.50;23.80;;;;;;2249446;61;20452;-63
2022/04/08 10:12:27;0.00;0.00;0.62;0.00;0.00;0.62;1.73;0.87;;;21.50;23.70;;;;;;2250759;61;20448;-59
2022/04/08 10:15:30;0.00;0.00;0.62;0.00;0.00;0.62;1.93;0.80;;;21.60;23.80;;;;;;2247535;61;20359;-61
2022/04/08 10:18:15;0.00;0.00;0.62;0.00;0.00;0.62;1.20;0.67;;;21.60;23.80;;;;;;2246803;61;20892;-61
2022/04/08 10:21:00;0.00;0.00;0.62;0.00;0.00;0.62;1.60;0.73;;;21.60;23.80;;;;;;2250124;61;20388;-60
2022/04/08 10:23:49;0.00;0.00;0.62;0.00;0.00;0.62;1.30;0.70;;;21.60;23.70;;;;;;2249220;61;20366;-63
2022/04/08 10:26:34;0.00;0.00;0.62;0.00;0.00;0.62;1.57;0.87;;;21.60;23.70;;;;;;2249716;61;20411;-63
2022/04/08 10:29:19;0.00;0.00;0.62;0.00;0.00;0.62;1.20;0.60;;;21.60;23.70;;;;;;2250594;61;20375;-60
2022/04/08 10:32:12;0.00;0.00;0.62;0.00;0.00;0.62;1.30;0.73;;;21.60;23.70;;;;;;2250064;61;20380;-57
2022/04/08 10:34:58;0.00;0.00;0.62;0.00;0.00;0.62;1.23;0.70;;;21.60;23.70;;;;;;2250096;61;20786;-61
2022/04/08 10:37:53;0.00;0.00;0.62;0.00;0.00;0.62;1.97;0.80;;;21.60;23.70;;;;;;2249049;61;20935;-62
2022/04/08 10:40:40;0.00;0.00;0.62;0.00;0.00;0.62;1.40;0.80;;;21.70;23.70;;;;;;2248687;61;20926;-60
2022/04/08 10:43:26;0.00;0.00;0.62;0.00;0.00;0.62;1.47;0.70;;;21.70;23.70;;;;;;2248603;61;20359;-61
2022/04/08 10:46:12;0.00;0.00;0.62;0.00;0.00;0.62;1.37;0.70;;;21.70;23.70;;;;;;2248452;61;20808;-63
2022/04/08 10:48:58;0.00;0.00;0.62;0.00;0.00;0.62;1.97;0.70;;;21.70;23.60;;;;;;2248627;61;20411;-67
2022/04/08 10:51:49;0.00;0.00;0.62;0.00;0.00;0.62;1.37;0.60;;;21.70;23.60;;;;;;2246145;61;20379;-63
2022/04/08 10:54:36;0.00;0.00;0.62;0.00;0.00;0.62;1.30;0.60;;;21.70;23.70;;;;;;2248577;61;20422;-64